Time,TemperatureF,DewpointF,PressureIn,WindDirection,WindDirectionDegrees,WindSpeedMPH,WindSpeedGustMPH,Humidity,HourlyPrecipIn,Conditions,Clouds,dailyrainin,SoftwareType,DateUTC
2013-11-11 00:02:00,35.9,32.7,30.30,ENE,59,14.0,14.0,88,0.00,,,0.00,Wunderground v.1.15,2013-11-11 06:02:00,
2013-11-11 00:08:00,35.9,33.0,30.30,ENE,59,16.0,16.0,89,0.00,,,0.00,Wunderground v.1.15,2013-11-11 06:08:00,
2013-11-11 00:14:00,36.0,33.1,30.30,ENE,63,15.0,16.0,89,0.00,,,0.00,Wunderground v.1.15,2013-11-11 06:14:00,
2013-11-11 00:20:00,36.1,33.2,30.30,West,279,14.0,15.0,89,0.00,,,0.00,Wunderground v.1.15,2013-11-11 06:20:00,
2013-11-11 00:26:00,36.3,33.4,30.30,ENE,63,14.0,15.0,89,0.00,,,0.00,Wunderground v.1.15,2013-11-11 06:26:00,
2013-11-11 00:32:00,36.3,33.4,30.30,ENE,59,14.0,14.0,89,0.00,,,0.00,Wunderground v.1.15,2013-11-11 06:32:00,
2013-11-11 00:38:00,36.4,33.5,30.30,ENE,63,13.0,14.0,89,0.00,,,0.00,Wunderground v.1.15,2013-11-11 06:38:00,
2013-11-11 00:43:00,36.4,33.5,30.29,ENE,65,12.0,13.0,89,0.00,,,0.00,Wunderground v.1.15,2013-11-11 06:43:00,
2013-11-11 00:49:00,36.3,33.4,30.29,ENE,66,12.0,14.0,89,0.00,,,0.00,Wunderground v.1.15,2013-11-11 06:49:00,
2013-11-11 00:55:00,36.3,33.4,30.29,ENE,67,13.0,14.0,89,0.00,,,0.00,Wunderground v.1.15,2013-11-11 06:55:00,
2013-11-11 01:00:00,36.3,33.6,30.29,ENE,68,13.0,13.0,90,0.00,,,0.00,Wunderground v.1.15,2013-11-11 07:00:00,
2013-11-11 01:05:00,36.3,33.6,30.29,ENE,67,12.0,13.0,90,0.00,,,0.00,Wunderground v.1.15,2013-11-11 07:05:00,
2013-11-11 01:11:00,36.2,33.5,30.29,ENE,68,13.0,13.0,90,0.00,,,0.00,Wunderground v.1.15,2013-11-11 07:11:00,
2013-11-11 01:17:00,36.2,33.5,30.29,ENE,68,14.0,14.0,90,0.00,,,0.00,Wunderground v.1.15,2013-11-11 07:17:00,
2013-11-11 01:23:00,36.2,33.5,30.29,ENE,69,13.0,13.0,90,0.00,,,0.00,Wunderground v.1.15,2013-11-11 07:23:00,
2013-11-11 01:28:00,36.2,33.8,30.29,West,279,12.0,13.0,91,0.00,,,0.00,Wunderground v.1.15,2013-11-11 07:28:00,
2013-11-11 01:34:00,36.1,33.7,30.29,West,279,11.0,13.0,91,0.00,,,0.00,Wunderground v.1.15,2013-11-11 07:34:00,
2013-11-11 01:40:00,36.0,33.6,30.29,ENE,74,11.0,12.0,91,0.00,,,0.00,Wunderground v.1.15,2013-11-11 07:40:00,
2013-11-11 01:46:00,35.9,33.5,30.29,ENE,75,12.0,12.0,91,0.00,,,0.00,Wunderground v.1.15,2013-11-11 07:46:00,
2013-11-11 01:51:00,35.9,33.5,30.29,ENE,74,11.0,12.0,91,0.00,,,0.00,Wunderground v.1.15,2013-11-11 07:51:00,
2013-11-11 01:57:00,35.7,33.3,30.29,ENE,77,12.0,12.0,91,0.00,,,0.00,Wunderground v.1.15,2013-11-11 07:57:00,
2013-11-11 02:02:00,35.7,33.3,30.28,ENE,74,12.0,12.0,91,0.00,,,0.00,Wunderground v.1.15,2013-11-11 08:02:00,
2013-11-11 02:07:00,35.7,33.6,30.28,West,279,11.0,12.0,92,0.00,,,0.00,Wunderground v.1.15,2013-11-11 08:07:00,
2013-11-11 02:12:00,35.8,33.7,30.28,ENE,78,10.0,12.0,92,0.00,,,0.00,Wunderground v.1.15,2013-11-11 08:12:00,
2013-11-11 02:17:00,35.9,33.8,30.28,East,82,10.0,12.0,92,0.00,,,0.00,Wunderground v.1.15,2013-11-11 08:17:00,
2013-11-11 02:22:00,35.9,33.8,30.29,East,85,9.0,11.0,92,0.00,,,0.00,Wunderground v.1.15,2013-11-11 08:22:00,
2013-11-11 02:27:00,36.0,33.9,30.28,East,82,5.0,11.0,92,0.00,,,0.00,Wunderground v.1.15,2013-11-11 08:27:00,
2013-11-11 02:32:00,36.0,33.9,30.28,East,84,5.0,7.0,92,0.00,,,0.00,Wunderground v.1.15,2013-11-11 08:32:00,
2013-11-11 02:37:00,36.0,34.2,30.29,East,82,5.0,9.0,93,0.00,,,0.00,Wunderground v.1.15,2013-11-11 08:37:00,
2013-11-11 02:42:00,35.9,33.8,30.29,East,82,6.0,6.0,92,0.00,,,0.00,Wunderground v.1.15,2013-11-11 08:42:00,
2013-11-11 02:47:00,35.9,33.8,30.28,West,279,3.0,7.0,92,0.00,,,0.00,Wunderground v.1.15,2013-11-11 08:47:00,
2013-11-11 02:52:00,35.9,33.8,30.29,West,279,2.0,4.0,92,0.00,,,0.00,Wunderground v.1.15,2013-11-11 08:52:00,
2013-11-11 02:57:00,35.9,33.8,30.29,East,85,2.0,4.0,92,0.00,,,0.00,Wunderground v.1.15,2013-11-11 08:57:00,
2013-11-11 03:02:00,35.8,33.7,30.28,West,279,0.0,3.0,92,0.00,,,0.00,Wunderground v.1.15,2013-11-11 09:02:00,
2013-11-11 03:07:00,35.7,33.6,30.28,East,88,2.0,3.0,92,0.00,,,0.00,Wunderground v.1.15,2013-11-11 09:07:00,
2013-11-11 03:12:00,35.8,33.7,30.28,East,88,0.0,1.0,92,0.00,,,0.00,Wunderground v.1.15,2013-11-11 09:12:00,
2013-11-11 03:17:00,35.9,34.1,30.28,East,88,3.0,4.0,93,0.00,,,0.00,Wunderground v.1.15,2013-11-11 09:17:00,
2013-11-11 03:22:00,35.9,34.1,30.28,West,279,4.0,5.0,93,0.00,,,0.00,Wunderground v.1.15,2013-11-11 09:22:00,
2013-11-11 03:27:00,36.0,34.2,30.28,ESE,117,7.0,8.0,93,0.00,,,0.00,Wunderground v.1.15,2013-11-11 09:27:00,
2013-11-11 03:32:00,36.0,34.2,30.28,ESE,113,7.0,9.0,93,0.00,,,0.00,Wunderground v.1.15,2013-11-11 09:32:00,
2013-11-11 03:37:00,36.1,34.3,30.28,ESE,109,6.0,9.0,93,0.00,,,0.00,Wunderground v.1.15,2013-11-11 09:37:00,
2013-11-11 03:42:00,36.2,34.4,30.27,ESE,107,4.0,7.0,93,0.00,,,0.00,Wunderground v.1.15,2013-11-11 09:42:00,
2013-11-11 03:47:00,36.2,34.4,30.27,ESE,107,5.0,7.0,93,0.00,,,0.00,Wunderground v.1.15,2013-11-11 09:47:00,
2013-11-11 03:52:00,36.2,34.4,30.28,West,279,11.0,11.0,93,0.00,,,0.00,Wunderground v.1.15,2013-11-11 09:52:00,
2013-11-11 03:57:00,36.2,34.4,30.27,West,279,10.0,12.0,93,0.00,,,0.00,Wunderground v.1.15,2013-11-11 09:57:00,
2013-11-11 04:02:00,36.2,34.4,30.28,ESE,115,11.0,11.0,93,0.00,,,0.00,Wunderground v.1.15,2013-11-11 10:02:00,
2013-11-11 04:07:00,36.3,34.2,30.28,ESE,119,9.0,12.0,92,0.00,,,0.00,Wunderground v.1.15,2013-11-11 10:07:00,
2013-11-11 04:12:00,36.4,34.3,30.28,West,279,11.0,12.0,92,0.00,,,0.00,Wunderground v.1.15,2013-11-11 10:12:00,
2013-11-11 04:17:00,36.4,34.3,30.28,ESE,113,6.0,12.0,92,0.00,,,0.00,Wunderground v.1.15,2013-11-11 10:17:00,
2013-11-11 04:22:00,36.4,34.3,30.29,ESE,115,10.0,11.0,92,0.00,,,0.00,Wunderground v.1.15,2013-11-11 10:22:00,
2013-11-11 04:27:00,36.4,34.3,30.29,ESE,121,10.0,11.0,92,0.00,,,0.00,Wunderground v.1.15,2013-11-11 10:27:00,
2013-11-11 04:32:00,36.3,33.9,30.28,ESE,120,11.0,12.0,91,0.00,,,0.00,Wunderground v.1.15,2013-11-11 10:32:00,
2013-11-11 04:37:00,36.3,33.9,30.28,ESE,120,10.0,12.0,91,0.00,,,0.00,Wunderground v.1.15,2013-11-11 10:37:00,
2013-11-11 04:42:00,36.2,34.1,30.29,ESE,119,8.0,11.0,92,0.00,,,0.00,Wunderground v.1.15,2013-11-11 10:42:00,
2013-11-11 04:47:00,36.2,34.1,30.28,ESE,117,9.0,11.0,92,0.00,,,0.00,Wunderground v.1.15,2013-11-11 10:47:00,
2013-11-11 04:52:00,36.3,34.2,30.28,West,279,10.0,11.0,92,0.00,,,0.00,Wunderground v.1.15,2013-11-11 10:52:00,
2013-11-11 04:57:00,36.3,34.2,30.28,ESE,116,11.0,11.0,92,0.00,,,0.00,Wunderground v.1.15,2013-11-11 10:57:00,
2013-11-11 05:02:00,36.2,33.8,30.28,ESE,117,12.0,12.0,91,0.00,,,0.00,Wunderground v.1.15,2013-11-11 11:02:00,
2013-11-11 05:07:00,36.1,33.7,30.28,ESE,117,12.0,14.0,91,0.00,,,0.00,Wunderground v.1.15,2013-11-11 11:07:00,
2013-11-11 05:12:00,36.0,33.6,30.28,ESE,120,13.0,15.0,91,0.00,,,0.00,Wunderground v.1.15,2013-11-11 11:12:00,
2013-11-11 05:17:00,35.8,33.4,30.28,West,279,13.0,15.0,91,0.00,,,0.00,Wunderground v.1.15,2013-11-11 11:17:00,
2013-11-11 05:22:00,35.7,33.1,30.28,ESE,120,14.0,14.0,90,0.00,,,0.00,Wunderground v.1.15,2013-11-11 11:22:00,
2013-11-11 05:27:00,35.5,32.9,30.28,West,279,14.0,15.0,90,0.00,,,0.00,Wunderground v.1.15,2013-11-11 11:27:00,
2013-11-11 05:32:00,35.3,32.7,30.28,SE,125,13.0,14.0,90,0.00,,,0.00,Wunderground v.1.15,2013-11-11 11:32:00,
2013-11-11 05:37:00,35.2,32.6,30.28,West,279,13.0,14.0,90,0.00,,,0.00,Wunderground v.1.15,2013-11-11 11:37:00,
2013-11-11 05:42:00,35.1,32.7,30.28,SE,125,14.0,15.0,91,0.00,,,0.00,Wunderground v.1.15,2013-11-11 11:42:00,
2013-11-11 05:47:00,35.2,32.8,30.28,SE,126,17.0,18.0,91,0.00,,,0.00,Wunderground v.1.15,2013-11-11 11:47:00,
2013-11-11 05:52:00,35.3,32.7,30.28,West,279,17.0,17.0,90,0.00,,,0.00,Wunderground v.1.15,2013-11-11 11:52:00,
2013-11-11 05:57:00,35.2,32.6,30.28,SE,127,19.0,19.0,90,0.00,,,0.00,Wunderground v.1.15,2013-11-11 11:57:00,
2013-11-11 06:02:00,35.2,32.6,30.28,SE,128,20.0,20.0,90,0.00,,,0.00,Wunderground v.1.15,2013-11-11 12:02:00,
2013-11-11 06:07:00,35.2,32.6,30.28,SE,128,19.0,21.0,90,0.00,,,0.00,Wunderground v.1.15,2013-11-11 12:07:00,
2013-11-11 06:12:00,35.3,32.7,30.28,SE,128,20.0,21.0,90,0.00,,,0.00,Wunderground v.1.15,2013-11-11 12:12:00,
2013-11-11 06:17:00,35.2,32.6,30.28,West,279,20.0,21.0,90,0.00,,,0.00,Wunderground v.1.15,2013-11-11 12:17:00,
2013-11-11 06:22:00,35.1,32.5,30.28,SE,126,20.0,21.0,90,0.00,,,0.00,Wunderground v.1.15,2013-11-11 12:22:00,
2013-11-11 06:27:00,35.0,32.4,30.29,SE,129,21.0,21.0,90,0.00,,,0.00,Wunderground v.1.15,2013-11-11 12:27:00,
2013-11-11 06:33:00,35.0,32.1,30.28,SE,131,21.0,22.0,89,0.00,,,0.00,Wunderground v.1.15,2013-11-11 12:33:00,
2013-11-11 06:37:00,35.3,32.1,30.28,West,279,21.0,22.0,88,0.00,,,0.00,Wunderground v.1.15,2013-11-11 12:37:00,
2013-11-11 06:42:00,35.7,32.5,30.29,SE,130,20.0,21.0,88,0.00,,,0.00,Wunderground v.1.15,2013-11-11 12:42:00,
2013-11-11 06:47:00,36.0,32.5,30.29,SE,130,21.0,21.0,87,0.00,,,0.00,Wunderground v.1.15,2013-11-11 12:47:00,
2013-11-11 06:52:00,36.5,32.4,30.29,SE,130,20.0,21.0,85,0.00,,,0.00,Wunderground v.1.15,2013-11-11 12:52:00,
2013-11-11 06:57:00,37.1,32.4,30.29,SE,132,21.0,22.0,83,0.00,,,0.00,Wunderground v.1.15,2013-11-11 12:57:00,
2013-11-11 07:02:00,37.7,32.4,30.29,SE,134,22.0,22.0,81,0.00,,,0.00,Wunderground v.1.15,2013-11-11 13:02:00,
2013-11-11 07:07:00,38.3,33.0,30.30,SE,137,21.0,22.0,81,0.00,,,0.00,Wunderground v.1.15,2013-11-11 13:07:00,
2013-11-11 07:13:00,38.7,33.4,30.29,SE,136,20.0,21.0,81,0.00,,,0.00,Wunderground v.1.15,2013-11-11 13:13:00,
2013-11-11 07:17:00,39.1,33.5,30.29,SE,138,23.0,23.0,80,0.00,,,0.00,Wunderground v.1.15,2013-11-11 13:17:00,
2013-11-11 07:22:00,39.7,33.7,30.29,SE,135,23.0,23.0,79,0.00,,,0.00,Wunderground v.1.15,2013-11-11 13:22:00,
2013-11-11 07:27:00,40.2,33.6,30.29,SE,139,23.0,24.0,77,0.00,,,0.00,Wunderground v.1.15,2013-11-11 13:27:00,
2013-11-11 07:32:00,40.8,33.5,30.29,SE,140,22.0,24.0,75,0.00,,,0.00,Wunderground v.1.15,2013-11-11 13:32:00,
2013-11-11 07:37:00,41.3,34.0,30.30,SE,146,19.0,24.0,75,0.00,,,0.00,Wunderground v.1.15,2013-11-11 13:37:00,
2013-11-11 07:42:00,41.9,34.2,30.29,SE,144,18.0,22.0,74,0.00,,,0.00,Wunderground v.1.15,2013-11-11 13:42:00,
2013-11-11 07:47:00,42.5,34.5,30.29,SE,144,21.0,22.0,73,0.00,,,0.00,Wunderground v.1.15,2013-11-11 13:47:00,
2013-11-11 07:52:00,43.1,34.3,30.30,SE,144,19.0,22.0,71,0.00,,,0.00,Wunderground v.1.15,2013-11-11 13:52:00,
2013-11-11 07:57:00,43.8,34.3,30.30,SSE,150,16.0,22.0,69,0.00,,,0.00,Wunderground v.1.15,2013-11-11 13:57:00,
2013-11-11 08:02:00,44.5,34.6,30.29,SE,138,15.0,21.0,68,0.00,,,0.00,Wunderground v.1.15,2013-11-11 14:02:00,
2013-11-11 08:07:00,45.1,34.8,30.29,SSE,151,14.0,21.0,67,0.00,,,0.00,Wunderground v.1.15,2013-11-11 14:07:00,
2013-11-11 08:13:00,45.7,34.6,30.29,SSE,156,10.0,19.0,65,0.00,,,0.00,Wunderground v.1.15,2013-11-11 14:13:00,
2013-11-11 08:17:00,46.3,35.2,30.29,SSE,157,12.0,19.0,65,0.00,,,0.00,Wunderground v.1.15,2013-11-11 14:17:00,
2013-11-11 08:22:00,46.9,35.0,30.29,SE,132,9.0,18.0,63,0.00,,,0.00,Wunderground v.1.15,2013-11-11 14:22:00,
2013-11-11 08:27:00,47.4,34.6,30.28,SE,137,11.0,20.0,61,0.00,,,0.00,Wunderground v.1.15,2013-11-11 14:27:00,
2013-11-11 08:32:00,47.9,34.7,30.28,West,279,12.0,19.0,60,0.00,,,0.00,Wunderground v.1.15,2013-11-11 14:32:00,
2013-11-11 08:37:00,48.5,34.8,30.28,West,279,15.0,19.0,59,0.00,,,0.00,Wunderground v.1.15,2013-11-11 14:37:00,
2013-11-11 08:42:00,49.0,35.3,30.28,West,279,12.0,18.0,59,0.00,,,0.00,Wunderground v.1.15,2013-11-11 14:42:00,
2013-11-11 08:47:00,49.6,34.1,30.28,SE,146,14.0,18.0,55,0.00,,,0.00,Wunderground v.1.15,2013-11-11 14:47:00,
2013-11-11 08:52:00,50.1,33.6,30.28,SSE,148,12.0,16.0,53,0.00,,,0.00,Wunderground v.1.15,2013-11-11 14:52:00,
2013-11-11 08:57:00,50.7,33.7,30.27,SSE,148,11.0,16.0,52,0.00,,,0.00,Wunderground v.1.15,2013-11-11 14:57:00,
2013-11-11 09:02:00,51.1,34.1,30.27,SSE,150,10.0,16.0,52,0.00,,,0.00,Wunderground v.1.15,2013-11-11 15:02:00,
2013-11-11 09:07:00,51.5,34.9,30.27,SE,134,10.0,16.0,53,0.00,,,0.00,Wunderground v.1.15,2013-11-11 15:07:00,
2013-11-11 09:12:00,52.1,34.5,30.27,SSE,156,11.0,12.0,51,0.00,,,0.00,Wunderground v.1.15,2013-11-11 15:12:00,
2013-11-11 09:17:00,52.7,35.1,30.27,SSE,154,11.0,12.0,51,0.00,,,0.00,Wunderground v.1.15,2013-11-11 15:17:00,
2013-11-11 09:22:00,53.2,35.0,30.27,SSE,154,7.0,13.0,50,0.00,,,0.00,Wunderground v.1.15,2013-11-11 15:22:00,
2013-11-11 09:27:00,53.7,35.5,30.27,SSE,149,6.0,13.0,50,0.00,,,0.00,Wunderground v.1.15,2013-11-11 15:27:00,
2013-11-11 09:32:00,54.2,34.4,30.27,SSE,165,12.0,12.0,47,0.00,,,0.00,Wunderground v.1.15,2013-11-11 15:32:00,
2013-11-11 09:37:00,54.7,34.8,30.27,West,279,9.0,14.0,47,0.00,,,0.00,Wunderground v.1.15,2013-11-11 15:37:00,
2013-11-11 09:42:00,55.0,35.1,30.27,South,172,7.0,12.0,47,0.00,,,0.00,Wunderground v.1.15,2013-11-11 15:42:00,
2013-11-11 09:47:00,55.4,35.5,30.27,West,279,9.0,12.0,47,0.00,,,0.00,Wunderground v.1.15,2013-11-11 15:47:00,
2013-11-11 09:53:00,55.8,35.9,30.27,SSE,159,12.0,14.0,47,0.00,,,0.00,Wunderground v.1.15,2013-11-11 15:53:00,
2013-11-11 09:58:00,56.1,36.7,30.27,SSE,161,5.0,14.0,48,0.00,,,0.00,Wunderground v.1.15,2013-11-11 15:58:00,
2013-11-11 10:03:00,56.4,36.4,30.27,SSE,155,5.0,10.0,47,0.00,,,0.00,Wunderground v.1.15,2013-11-11 16:03:00,
2013-11-11 10:08:00,56.8,37.3,30.27,West,279,6.0,10.0,48,0.00,,,0.00,Wunderground v.1.15,2013-11-11 16:08:00,
2013-11-11 10:13:00,57.3,35.6,30.26,West,279,9.0,12.0,44,0.00,,,0.00,Wunderground v.1.15,2013-11-11 16:13:00,
2013-11-11 10:18:00,57.8,35.4,30.26,SSE,159,7.0,12.0,43,0.00,,,0.00,Wunderground v.1.15,2013-11-11 16:18:00,
2013-11-11 10:23:00,58.2,35.8,30.26,SSE,165,9.0,10.0,43,0.00,,,0.00,Wunderground v.1.15,2013-11-11 16:23:00,
2013-11-11 10:28:00,58.5,36.6,30.25,South,191,3.0,10.0,44,0.00,,,0.00,Wunderground v.1.15,2013-11-11 16:28:00,
2013-11-11 10:33:00,58.8,36.3,30.26,South,174,5.0,8.0,43,0.00,,,0.00,Wunderground v.1.15,2013-11-11 16:33:00,
2013-11-11 10:38:00,59.3,36.8,30.25,SSE,148,8.0,10.0,43,0.00,,,0.00,Wunderground v.1.15,2013-11-11 16:38:00,
2013-11-11 10:43:00,59.7,35.9,30.25,SE,140,6.0,11.0,41,0.00,,,0.00,Wunderground v.1.15,2013-11-11 16:43:00,
2013-11-11 10:48:00,59.9,35.5,30.25,SSE,163,7.0,13.0,40,0.00,,,0.00,Wunderground v.1.15,2013-11-11 16:48:00,
2013-11-11 10:53:00,60.0,35.6,30.25,South,190,5.0,11.0,40,0.00,,,0.00,Wunderground v.1.15,2013-11-11 16:53:00,
2013-11-11 10:58:00,60.0,35.6,30.24,South,184,8.0,11.0,40,0.00,,,0.00,Wunderground v.1.15,2013-11-11 16:58:00,
2013-11-11 11:03:00,60.0,36.2,30.24,SSE,165,10.0,13.0,41,0.00,,,0.00,Wunderground v.1.15,2013-11-11 17:03:00,
2013-11-11 11:08:00,60.0,36.2,30.24,SSE,162,7.0,13.0,41,0.00,,,0.00,Wunderground v.1.15,2013-11-11 17:08:00,
2013-11-11 11:13:00,60.0,36.2,30.24,SSE,161,11.0,12.0,41,0.00,,,0.00,Wunderground v.1.15,2013-11-11 17:13:00,
2013-11-11 11:18:00,59.9,36.1,30.23,South,187,9.0,12.0,41,0.00,,,0.00,Wunderground v.1.15,2013-11-11 17:18:00,
2013-11-11 11:23:00,60.0,36.2,30.24,South,172,5.0,11.0,41,0.00,,,0.00,Wunderground v.1.15,2013-11-11 17:23:00,
2013-11-11 11:28:00,60.0,36.2,30.24,West,279,6.0,12.0,41,0.00,,,0.00,Wunderground v.1.15,2013-11-11 17:28:00,
2013-11-11 11:33:00,60.0,36.8,30.23,South,175,7.0,9.0,42,0.00,,,0.00,Wunderground v.1.15,2013-11-11 17:33:00,
2013-11-11 11:38:00,60.1,36.3,30.23,West,279,5.0,10.0,41,0.00,,,0.00,Wunderground v.1.15,2013-11-11 17:38:00,
2013-11-11 11:43:00,60.3,38.3,30.23,West,279,6.0,8.0,44,0.00,,,0.00,Wunderground v.1.15,2013-11-11 17:43:00,
2013-11-11 11:48:00,60.5,36.7,30.23,South,188,7.0,11.0,41,0.00,,,0.00,Wunderground v.1.15,2013-11-11 17:48:00,
2013-11-11 11:53:00,60.7,36.8,30.23,SSW,200,5.0,8.0,41,0.00,,,0.00,Wunderground v.1.15,2013-11-11 17:53:00,
2013-11-11 11:58:00,61.0,37.1,30.23,West,279,9.0,11.0,41,0.00,,,0.00,Wunderground v.1.15,2013-11-11 17:58:00,
2013-11-11 12:03:00,61.2,36.7,30.22,South,182,10.0,10.0,40,0.00,,,0.00,Wunderground v.1.15,2013-11-11 18:03:00,
2013-11-11 12:08:00,61.4,36.2,30.21,South,185,5.0,10.0,39,0.00,,,0.00,Wunderground v.1.15,2013-11-11 18:08:00,
2013-11-11 12:13:00,61.4,36.8,30.21,SSW,211,12.0,12.0,40,0.00,,,0.00,Wunderground v.1.15,2013-11-11 18:13:00,
2013-11-11 12:18:00,61.6,37.0,30.22,SSW,208,13.0,13.0,40,0.00,,,0.00,Wunderground v.1.15,2013-11-11 18:18:00,
2013-11-11 12:23:00,61.6,38.9,30.21,SSW,198,9.0,10.0,43,0.00,,,0.00,Wunderground v.1.15,2013-11-11 18:23:00,
2013-11-11 12:28:00,61.6,36.4,30.21,SSW,206,9.0,10.0,39,0.00,,,0.00,Wunderground v.1.15,2013-11-11 18:28:00,
2013-11-11 12:33:00,61.6,38.3,30.20,SW,227,9.0,12.0,42,0.00,,,0.00,Wunderground v.1.15,2013-11-11 18:33:00,
2013-11-11 12:38:00,61.5,36.9,30.20,SW,224,7.0,12.0,40,0.00,,,0.00,Wunderground v.1.15,2013-11-11 18:38:00,
2013-11-11 12:43:00,61.6,38.9,30.20,West,279,7.0,11.0,43,0.00,,,0.00,Wunderground v.1.15,2013-11-11 18:43:00,
2013-11-11 12:48:00,62.2,38.2,30.20,SSW,209,9.0,11.0,41,0.00,,,0.00,Wunderground v.1.15,2013-11-11 18:48:00,
2013-11-11 12:53:00,62.4,37.1,30.19,SSW,198,9.0,11.0,39,0.00,,,0.00,Wunderground v.1.15,2013-11-11 18:53:00,
2013-11-11 12:58:00,62.7,38.0,30.19,SSW,200,10.0,12.0,40,0.00,,,0.00,Wunderground v.1.15,2013-11-11 18:58:00,
2013-11-11 13:03:00,62.9,36.9,30.19,SSW,207,11.0,14.0,38,0.00,,,0.00,Wunderground v.1.15,2013-11-11 19:03:00,
2013-11-11 13:08:00,62.8,36.8,30.19,SW,230,6.0,14.0,38,0.00,,,0.00,Wunderground v.1.15,2013-11-11 19:08:00,
2013-11-11 13:13:00,63.1,37.7,30.19,SW,230,11.0,12.0,39,0.00,,,0.00,Wunderground v.1.15,2013-11-11 19:13:00,
2013-11-11 13:18:00,63.4,38.6,30.18,SW,217,5.0,12.0,40,0.00,,,0.00,Wunderground v.1.15,2013-11-11 19:18:00,
2013-11-11 13:23:00,63.6,38.2,30.18,WSW,246,11.0,11.0,39,0.00,,,0.00,Wunderground v.1.15,2013-11-11 19:23:00,
2013-11-11 13:28:00,63.5,38.1,30.18,West,274,8.0,11.0,39,0.00,,,0.00,Wunderground v.1.15,2013-11-11 19:28:00,
2013-11-11 13:33:00,63.6,38.8,30.18,WSW,241,7.0,10.0,40,0.00,,,0.00,Wunderground v.1.15,2013-11-11 19:33:00,
2013-11-11 13:38:00,64.0,39.2,30.18,West,279,9.0,12.0,40,0.00,,,0.00,Wunderground v.1.15,2013-11-11 19:38:00,
2013-11-11 13:43:00,64.0,37.2,30.17,SW,236,7.0,11.0,37,0.00,,,0.00,Wunderground v.1.15,2013-11-11 19:43:00,
2013-11-11 13:48:00,63.7,37.6,30.17,SW,233,8.0,12.0,38,0.00,,,0.00,Wunderground v.1.15,2013-11-11 19:48:00,
2013-11-11 13:53:00,63.2,37.2,30.17,SW,230,7.0,11.0,38,0.00,,,0.00,Wunderground v.1.15,2013-11-11 19:53:00,
2013-11-11 13:58:00,63.2,37.8,30.17,West,279,7.0,11.0,39,0.00,,,0.00,Wunderground v.1.15,2013-11-11 19:58:00,
2013-11-11 14:03:00,63.8,37.0,30.17,West,279,9.0,12.0,37,0.00,,,0.00,Wunderground v.1.15,2013-11-11 20:03:00,
2013-11-11 14:08:00,64.1,38.0,30.17,SW,230,8.0,12.0,38,0.00,,,0.00,Wunderground v.1.15,2013-11-11 20:08:00,
2013-11-11 14:13:00,63.6,36.8,30.17,SW,220,10.0,10.0,37,0.00,,,0.00,Wunderground v.1.15,2013-11-11 20:13:00,
2013-11-11 14:18:00,62.9,36.9,30.17,SW,228,7.0,10.0,38,0.00,,,0.00,Wunderground v.1.15,2013-11-11 20:18:00,
2013-11-11 14:23:00,62.4,37.1,30.17,SW,229,8.0,10.0,39,0.00,,,0.00,Wunderground v.1.15,2013-11-11 20:23:00,
2013-11-11 14:28:00,62.1,38.1,30.17,SSW,192,6.0,10.0,41,0.00,,,0.00,Wunderground v.1.15,2013-11-11 20:28:00,
2013-11-11 14:33:00,62.2,38.2,30.16,SW,225,8.0,9.0,41,0.00,,,0.00,Wunderground v.1.15,2013-11-11 20:33:00,
2013-11-11 14:38:00,62.3,38.3,30.17,SW,217,7.0,10.0,41,0.00,,,0.00,Wunderground v.1.15,2013-11-11 20:38:00,
2013-11-11 14:43:00,62.3,38.9,30.16,SW,219,6.0,10.0,42,0.00,,,0.00,Wunderground v.1.15,2013-11-11 20:43:00,
2013-11-11 14:48:00,62.2,38.8,30.17,SSW,209,6.0,10.0,42,0.00,,,0.00,Wunderground v.1.15,2013-11-11 20:48:00,
2013-11-11 14:53:00,62.0,38.6,30.16,West,279,5.0,8.0,42,0.00,,,0.00,Wunderground v.1.15,2013-11-11 20:53:00,
2013-11-11 14:58:00,61.8,39.1,30.16,SW,217,3.0,8.0,43,0.00,,,0.00,Wunderground v.1.15,2013-11-11 20:58:00,
2013-11-11 15:03:00,61.7,39.0,30.16,South,191,6.0,9.0,43,0.00,,,0.00,Wunderground v.1.15,2013-11-11 21:03:00,
2013-11-11 15:08:00,61.6,38.9,30.15,South,190,3.0,9.0,43,0.00,,,0.00,Wunderground v.1.15,2013-11-11 21:08:00,
2013-11-11 15:13:00,61.7,39.6,30.15,SSW,192,3.0,6.0,44,0.00,,,0.00,Wunderground v.1.15,2013-11-11 21:13:00,
2013-11-11 15:18:00,61.8,38.4,30.15,South,186,7.0,7.0,42,0.00,,,0.00,Wunderground v.1.15,2013-11-11 21:18:00,
2013-11-11 15:23:00,61.8,37.8,30.15,West,279,10.0,11.0,41,0.00,,,0.00,Wunderground v.1.15,2013-11-11 21:23:00,
2013-11-11 15:28:00,61.8,37.8,30.15,West,279,6.0,11.0,41,0.00,,,0.00,Wunderground v.1.15,2013-11-11 21:28:00,
2013-11-11 15:33:00,61.8,40.8,30.15,SSW,209,5.0,8.0,46,0.00,,,0.00,Wunderground v.1.15,2013-11-11 21:33:00,
2013-11-11 15:38:00,61.7,39.6,30.15,SSW,201,2.0,8.0,44,0.00,,,0.00,Wunderground v.1.15,2013-11-11 21:38:00,
2013-11-11 15:43:00,61.7,40.7,30.15,SSW,199,2.0,4.0,46,0.00,,,0.00,Wunderground v.1.15,2013-11-11 21:43:00,
2013-11-11 15:48:00,61.6,39.5,30.14,South,190,4.0,5.0,44,0.00,,,0.00,Wunderground v.1.15,2013-11-11 21:48:00,
2013-11-11 15:53:00,61.6,40.6,30.15,SSW,192,5.0,6.0,46,0.00,,,0.00,Wunderground v.1.15,2013-11-11 21:53:00,
2013-11-11 15:58:00,61.5,38.8,30.14,South,186,7.0,7.0,43,0.00,,,0.00,Wunderground v.1.15,2013-11-11 21:58:00,
2013-11-11 16:03:00,61.4,38.7,30.14,South,169,6.0,11.0,43,0.00,,,0.00,Wunderground v.1.15,2013-11-11 22:03:00,
2013-11-11 16:08:00,61.3,39.8,30.15,SSW,194,3.0,11.0,45,0.00,,,0.00,Wunderground v.1.15,2013-11-11 22:08:00,
2013-11-11 16:13:00,61.1,42.3,30.15,SSW,194,4.0,7.0,50,0.00,,,0.00,Wunderground v.1.15,2013-11-11 22:13:00,
2013-11-11 16:18:00,60.9,40.0,30.15,SW,217,4.0,8.0,46,0.00,,,0.00,Wunderground v.1.15,2013-11-11 22:18:00,
2013-11-11 16:23:00,60.8,39.3,30.15,SSW,201,6.0,10.0,45,0.00,,,0.00,Wunderground v.1.15,2013-11-11 22:23:00,
2013-11-11 16:28:00,60.5,38.5,30.15,SSW,203,6.0,10.0,44,0.00,,,0.00,Wunderground v.1.15,2013-11-11 22:28:00,
2013-11-11 16:33:00,60.4,37.8,30.15,South,188,10.0,10.0,43,0.00,,,0.00,Wunderground v.1.15,2013-11-11 22:33:00,
2013-11-11 16:38:00,60.3,37.7,30.14,West,279,9.0,11.0,43,0.00,,,0.00,Wunderground v.1.15,2013-11-11 22:38:00,
2013-11-11 16:43:00,60.2,38.2,30.14,South,180,9.0,10.0,44,0.00,,,0.00,Wunderground v.1.15,2013-11-11 22:43:00,
2013-11-11 16:48:00,60.1,38.1,30.14,West,279,11.0,11.0,44,0.00,,,0.00,Wunderground v.1.15,2013-11-11 22:48:00,
2013-11-11 16:53:00,59.9,37.9,30.14,West,279,12.0,12.0,44,0.00,,,0.00,Wunderground v.1.15,2013-11-11 22:53:00,
2013-11-11 16:58:00,59.8,37.8,30.14,West,279,11.0,12.0,44,0.00,,,0.00,Wunderground v.1.15,2013-11-11 22:58:00,
2013-11-11 17:03:00,59.7,38.3,30.14,South,181,10.0,12.0,45,0.00,,,0.00,Wunderground v.1.15,2013-11-11 23:03:00,
2013-11-11 17:08:00,59.5,39.2,30.14,South,183,11.0,12.0,47,0.00,,,0.00,Wunderground v.1.15,2013-11-11 23:08:00,
2013-11-11 17:13:00,59.4,38.6,30.14,South,183,11.0,12.0,46,0.00,,,0.00,Wunderground v.1.15,2013-11-11 23:13:00,
2013-11-11 17:18:00,59.2,40.0,30.15,SSW,192,11.0,12.0,49,0.00,,,0.00,Wunderground v.1.15,2013-11-11 23:18:00,
2013-11-11 17:23:00,59.0,39.9,30.15,SSW,207,7.0,11.0,49,0.00,,,0.00,Wunderground v.1.15,2013-11-11 23:23:00,
2013-11-11 17:28:00,58.7,41.1,30.15,SSW,209,9.0,11.0,52,0.00,,,0.00,Wunderground v.1.15,2013-11-11 23:28:00,
2013-11-11 17:33:00,58.3,39.7,30.16,SSW,211,7.0,10.0,50,0.00,,,0.00,Wunderground v.1.15,2013-11-11 23:33:00,
2013-11-11 17:38:00,58.1,41.0,30.16,SSW,213,7.0,10.0,53,0.00,,,0.00,Wunderground v.1.15,2013-11-11 23:38:00,
2013-11-11 17:43:00,57.8,42.2,30.16,SW,215,9.0,10.0,56,0.00,,,0.00,Wunderground v.1.15,2013-11-11 23:43:00,
2013-11-11 17:48:00,57.5,40.5,30.16,SSW,209,11.0,11.0,53,0.00,,,0.00,Wunderground v.1.15,2013-11-11 23:48:00,
2013-11-11 17:53:00,57.3,39.3,30.16,SSW,210,9.0,12.0,51,0.00,,,0.00,Wunderground v.1.15,2013-11-11 23:53:00,
2013-11-11 17:58:00,57.2,39.7,30.16,West,279,10.0,12.0,52,0.00,,,0.00,Wunderground v.1.15,2013-11-11 23:58:00,
2013-11-11 18:03:00,57.1,39.1,30.16,West,279,9.0,10.0,51,0.00,,,0.00,Wunderground v.1.15,2013-11-12 00:03:00,
2013-11-11 18:08:00,57.0,41.0,30.16,SSW,210,9.0,11.0,55,0.00,,,0.00,Wunderground v.1.15,2013-11-12 00:08:00,
2013-11-11 18:13:00,56.8,41.3,30.16,SSW,209,8.0,11.0,56,0.00,,,0.00,Wunderground v.1.15,2013-11-12 00:13:00,
2013-11-11 18:18:00,56.6,41.5,30.16,West,279,11.0,12.0,57,0.00,,,0.00,Wunderground v.1.15,2013-11-12 00:18:00,
2013-11-11 18:23:00,56.3,39.9,30.16,SSW,207,11.0,12.0,54,0.00,,,0.00,Wunderground v.1.15,2013-11-12 00:23:00,
2013-11-11 18:28:00,56.2,39.3,30.16,SSW,205,11.0,12.0,53,0.00,,,0.00,Wunderground v.1.15,2013-11-12 00:28:00,
2013-11-11 18:33:00,56.3,39.4,30.16,SSW,203,10.0,13.0,53,0.00,,,0.00,Wunderground v.1.15,2013-11-12 00:33:00,
2013-11-11 18:38:00,56.3,38.9,30.16,SSW,200,13.0,14.0,52,0.00,,,0.00,Wunderground v.1.15,2013-11-12 00:38:00,
2013-11-11 18:43:00,56.5,39.6,30.16,SSW,200,12.0,14.0,53,0.00,,,0.00,Wunderground v.1.15,2013-11-12 00:43:00,
2013-11-11 18:48:00,56.6,39.2,30.16,SSW,197,14.0,14.0,52,0.00,,,0.00,Wunderground v.1.15,2013-11-12 00:48:00,
2013-11-11 18:53:00,56.8,39.4,30.16,SSW,196,15.0,16.0,52,0.00,,,0.00,Wunderground v.1.15,2013-11-12 00:53:00,
2013-11-11 18:58:00,57.0,39.5,30.16,SSW,196,14.0,16.0,52,0.00,,,0.00,Wunderground v.1.15,2013-11-12 00:58:00,
2013-11-11 19:03:00,57.1,40.1,30.16,SSW,198,16.0,16.0,53,0.00,,,0.00,Wunderground v.1.15,2013-11-12 01:03:00,
2013-11-11 19:08:00,57.2,40.2,30.16,SSW,203,15.0,16.0,53,0.00,,,0.00,Wunderground v.1.15,2013-11-12 01:08:00,
2013-11-11 19:13:00,57.2,39.7,30.16,SSW,200,14.0,15.0,52,0.00,,,0.00,Wunderground v.1.15,2013-11-12 01:13:00,
2013-11-11 19:18:00,57.3,40.3,30.16,SSW,200,14.0,15.0,53,0.00,,,0.00,Wunderground v.1.15,2013-11-12 01:18:00,
2013-11-11 19:24:00,57.3,39.8,30.16,West,279,15.0,15.0,52,0.00,,,0.00,Wunderground v.1.15,2013-11-12 01:24:00,
2013-11-11 19:29:00,57.4,39.9,30.16,SSW,203,15.0,15.0,52,0.00,,,0.00,Wunderground v.1.15,2013-11-12 01:29:00,
2013-11-11 19:33:00,57.4,39.9,30.15,SSW,205,14.0,16.0,52,0.00,,,0.00,Wunderground v.1.15,2013-11-12 01:33:00,
2013-11-11 19:39:00,57.4,40.4,30.16,SSW,206,14.0,16.0,53,0.00,,,0.00,Wunderground v.1.15,2013-11-12 01:39:00,
2013-11-11 19:44:00,57.4,40.4,30.15,SSW,199,13.0,15.0,53,0.00,,,0.00,Wunderground v.1.15,2013-11-12 01:44:00,
2013-11-11 19:49:00,57.5,40.5,30.16,SSW,201,13.0,16.0,53,0.00,,,0.00,Wunderground v.1.15,2013-11-12 01:49:00,
2013-11-11 19:54:00,57.5,40.5,30.16,SSW,203,11.0,15.0,53,0.00,,,0.00,Wunderground v.1.15,2013-11-12 01:54:00,
2013-11-11 19:59:00,57.5,41.0,30.16,SSW,203,14.0,16.0,54,0.00,,,0.00,Wunderground v.1.15,2013-11-12 01:59:00,
2013-11-11 20:04:00,57.5,41.0,30.15,SSW,211,14.0,16.0,54,0.00,,,0.00,Wunderground v.1.15,2013-11-12 02:04:00,
2013-11-11 20:09:00,57.4,40.9,30.16,SSW,213,14.0,16.0,54,0.00,,,0.00,Wunderground v.1.15,2013-11-12 02:09:00,
2013-11-11 20:14:00,57.4,40.9,30.16,SSW,208,15.0,16.0,54,0.00,,,0.00,Wunderground v.1.15,2013-11-12 02:14:00,
2013-11-11 20:19:00,57.3,41.3,30.16,SSW,213,14.0,16.0,55,0.00,,,0.00,Wunderground v.1.15,2013-11-12 02:19:00,
2013-11-11 20:24:00,57.3,41.3,30.16,SSW,213,14.0,15.0,55,0.00,,,0.00,Wunderground v.1.15,2013-11-12 02:24:00,
2013-11-11 20:29:00,57.3,41.7,30.16,SW,219,14.0,15.0,56,0.00,,,0.00,Wunderground v.1.15,2013-11-12 02:29:00,
2013-11-11 20:34:00,57.2,42.1,30.17,WSW,240,13.0,15.0,57,0.00,,,0.00,Wunderground v.1.15,2013-11-12 02:34:00,
2013-11-11 20:39:00,57.1,42.0,30.17,WSW,247,13.0,15.0,57,0.00,,,0.00,Wunderground v.1.15,2013-11-12 02:39:00,
2013-11-11 20:44:00,57.0,41.4,30.18,West,263,13.0,15.0,56,0.00,,,0.00,Wunderground v.1.15,2013-11-12 02:44:00,
2013-11-11 20:49:00,56.9,41.8,30.18,West,267,11.0,15.0,57,0.00,,,0.00,Wunderground v.1.15,2013-11-12 02:49:00,
2013-11-11 20:54:00,56.8,41.7,30.18,WNW,284,12.0,16.0,57,0.00,,,0.00,Wunderground v.1.15,2013-11-12 02:54:00,
2013-11-11 20:59:00,56.7,41.6,30.18,West,279,12.0,16.0,57,0.00,,,0.00,Wunderground v.1.15,2013-11-12 02:59:00,
2013-11-11 21:04:00,56.7,43.0,30.19,WNW,296,12.0,15.0,60,0.00,,,0.00,Wunderground v.1.15,2013-11-12 03:04:00,
2013-11-11 21:09:00,56.5,42.8,30.19,WNW,288,11.0,16.0,60,0.00,,,0.00,Wunderground v.1.15,2013-11-12 03:09:00,
2013-11-11 21:14:00,56.4,43.5,30.19,NW,309,12.0,17.0,62,0.00,,,0.00,Wunderground v.1.15,2013-11-12 03:14:00,
2013-11-11 21:19:00,56.2,42.5,30.19,WNW,303,13.0,17.0,60,0.00,,,0.00,Wunderground v.1.15,2013-11-12 03:19:00,
2013-11-11 21:24:00,56.2,43.3,30.19,NNW,327,15.0,18.0,62,0.00,,,0.00,Wunderground v.1.15,2013-11-12 03:24:00,
2013-11-11 21:29:00,56.0,43.2,30.19,NW,305,15.0,18.0,62,0.00,,,0.00,Wunderground v.1.15,2013-11-12 03:29:00,
2013-11-11 21:34:00,55.9,43.1,30.20,NW,319,13.0,23.0,62,0.00,,,0.00,Wunderground v.1.15,2013-11-12 03:34:00,
2013-11-11 21:39:00,55.9,42.6,30.20,NW,311,23.0,28.0,61,0.00,,,0.00,Wunderground v.1.15,2013-11-12 03:39:00,
2013-11-11 21:44:00,55.9,43.1,30.21,WNW,299,12.0,23.0,62,0.00,,,0.00,Wunderground v.1.15,2013-11-12 03:44:00,
2013-11-11 21:49:00,55.9,43.5,30.21,NW,310,16.0,23.0,63,0.00,,,0.00,Wunderground v.1.15,2013-11-12 03:49:00,
2013-11-11 21:54:00,55.6,44.0,30.22,NW,307,19.0,26.0,65,0.00,,,0.00,Wunderground v.1.15,2013-11-12 03:54:00,
2013-11-11 21:59:00,55.4,44.2,30.22,NW,325,16.0,26.0,66,0.00,,,0.00,Wunderground v.1.15,2013-11-12 03:59:00,
2013-11-11 22:04:00,55.1,44.7,30.23,NNW,330,15.0,24.0,68,0.00,,,0.00,Wunderground v.1.15,2013-11-12 04:04:00,
2013-11-11 22:09:00,54.8,44.8,30.23,NNW,329,17.0,24.0,69,0.00,,,0.00,Wunderground v.1.15,2013-11-12 04:09:00,
2013-11-11 22:14:00,54.4,44.8,30.23,NW,319,21.0,25.0,70,0.00,,,0.00,Wunderground v.1.15,2013-11-12 04:14:00,
2013-11-11 22:19:00,54.1,44.9,30.23,NNW,345,18.0,28.0,71,0.00,,,0.00,Wunderground v.1.15,2013-11-12 04:19:00,
2013-11-11 22:24:00,53.7,44.9,30.24,North,358,24.0,30.0,72,0.00,,,0.00,Wunderground v.1.15,2013-11-12 04:24:00,
2013-11-11 22:29:00,53.3,44.9,30.24,NNW,342,19.0,30.0,73,0.00,,,0.00,Wunderground v.1.15,2013-11-12 04:29:00,
2013-11-11 22:34:00,52.8,44.7,30.24,NNW,346,16.0,25.0,74,0.00,,,0.00,Wunderground v.1.15,2013-11-12 04:34:00,
2013-11-11 22:39:00,52.1,44.1,30.25,NNW,335,21.0,28.0,74,0.00,,,0.00,Wunderground v.1.15,2013-11-12 04:39:00,
2013-11-11 22:44:00,51.4,43.7,30.26,NNW,332,24.0,27.0,75,0.00,,,0.00,Wunderground v.1.15,2013-11-12 04:44:00,
2013-11-11 22:49:00,51.0,43.0,30.26,NW,323,18.0,28.0,74,0.00,,,0.00,Wunderground v.1.15,2013-11-12 04:49:00,
2013-11-11 22:54:00,50.5,42.9,30.27,NW,317,20.0,29.0,75,0.00,,,0.00,Wunderground v.1.15,2013-11-12 04:54:00,
2013-11-11 22:59:00,50.1,42.5,30.27,NNW,334,25.0,29.0,75,0.00,,,0.00,Wunderground v.1.15,2013-11-12 04:59:00,
2013-11-11 23:01:00,50.0,42.7,30.27,NW,326,19.0,22.0,76,0.00,,,0.00,Wunderground v.1.15,2013-11-12 05:01:00,
2013-11-11 23:07:00,49.7,42.8,30.27,NNW,334,24.0,27.0,77,0.00,,,0.00,Wunderground v.1.15,2013-11-12 05:07:00,
2013-11-11 23:12:00,49.1,41.9,30.28,North,359,24.0,27.0,76,0.00,,,0.00,Wunderground v.1.15,2013-11-12 05:12:00,
2013-11-11 23:17:00,48.5,41.6,30.28,North,350,22.0,28.0,77,0.00,,,0.00,Wunderground v.1.15,2013-11-12 05:17:00,
2013-11-11 23:22:00,47.9,41.7,30.28,NNW,348,22.0,25.0,79,0.00,,,0.00,Wunderground v.1.15,2013-11-12 05:22:00,
2013-11-11 23:27:00,47.6,41.7,30.28,NNW,344,16.0,25.0,80,0.00,,,0.00,Wunderground v.1.15,2013-11-12 05:27:00,
2013-11-11 23:32:00,47.5,41.6,30.29,NNW,348,12.0,19.0,80,0.00,,,0.00,Wunderground v.1.15,2013-11-12 05:32:00,
2013-11-11 23:37:00,47.3,41.4,30.29,North,5,22.0,23.0,80,0.00,,,0.00,Wunderground v.1.15,2013-11-12 05:37:00,
2013-11-11 23:42:00,47.0,40.8,30.29,NNW,342,22.0,30.0,79,0.00,,,0.00,Wunderground v.1.15,2013-11-12 05:42:00,
2013-11-11 23:47:00,46.5,40.3,30.30,NNW,343,22.0,30.0,79,0.00,,,0.00,Wunderground v.1.15,2013-11-12 05:47:00,
2013-11-11 23:52:00,46.1,39.3,30.31,NNW,328,23.0,27.0,77,0.00,,,0.00,Wunderground v.1.15,2013-11-12 05:52:00,
2013-11-11 23:57:00,45.7,39.2,30.30,NNW,348,21.0,27.0,78,0.00,,,0.00,Wunderground v.1.15,2013-11-12 05:57:00,